Current | Forecast
Updated: 2:55 AM JST on April 29, 2017
Observed at Iwakuni MCAS, Japan
Temperature 57°F
Humidity 64%
Dew Point 45°F
Wind NNW at 4 mph
Pressure 29.75 in (Falling)
Conditions Mostly Cloudy
Visibility 6.2 miles
UV 0 out of 16
Clouds Mostly Cloudy (BKN) : 23000 ft
Yesterday's Maximum 71°F
Yesterday's Minimum 48°F approx.
Yesterday's Heating Degree Days 5 approx.
Sunrise5:26 AM JST
Sunset6:54 PM JST
Moon Rise7:46 AM JST
Moon Set10:00 PM JST
Moon PhaseMoon Phase
Waxing Crescent
Raw METARMETAR RJOI 281755Z 33003KT 9999 BKN230 14/07 A2975 RMK SLP073 T01390072 10161 20133 58007


Monday
. High: 71° F.
Tuesday
. High: 71° F.
Wednesday
. High: 69° F.
Thursday
. High: 71° F.
Friday
. High: 71° F.
Saturday
. High: 71° F.
Sunday
. High: 75° F.
Monday
. High: 77° F.

Units: English | Metric

Find the Weather for any City, State or Zipcode, or Country:

U.S. State List | Severe Weather | Tropical Storms | Ski Conditions
United States | Canada | Central America | South America | Asia | Europe | Australia | Africa | Islands

Weather Underground

© Copyright 2017
The Weather Company, LLC